Time;durP1;ratioP1;P1;durP2;ratioP2;P2;SDS_P1;SDS_P2;PMS_P1;PMS_P2;Temp;Humidity;BMP_temperature;BMP_pressure;BME280_temperature;BME280_humidity;BME280_pressure;Samples;Min_cycle;Max_cycle;Signal;HPM_P1;HPM_P2
2024/04/17 05:00:28;;;;;;;4.63;2.50;;;6.00;99.90;;;;;;5142177;22;20685;-75
2024/04/17 05:02:29;;;;;;;4.50;2.60;;;6.00;99.90;;;;;;4282858;27;20000;-83
2024/04/17 05:04:33;;;;;;;5.30;2.60;;;6.00;99.90;;;;;;4285020;27;20466;-83
2024/04/17 05:06:34;;;;;;;4.70;2.70;;;6.00;99.90;;;;;;4284984;27;20022;-83
2024/04/17 05:08:38;;;;;;;6.28;3.22;;;6.10;99.90;;;;;;4291026;27;20011;-83
2024/04/17 05:10:39;;;;;;;4.93;2.90;;;6.10;99.90;;;;;;4312158;27;20014;-83
2024/04/17 05:12:42;;;;;;;5.57;2.85;;;6.00;99.90;;;;;;4312314;27;20004;-83
2024/04/17 05:14:43;;;;;;;5.38;2.80;;;6.00;99.90;;;;;;4312162;27;20004;-82
2024/04/17 05:16:49;;;;;;;4.70;2.63;;;6.00;99.90;;;;;;4312086;27;20015;-82
2024/04/17 05:18:51;;;;;;;3.90;2.25;;;6.10;99.90;;;;;;4312064;27;20012;-82
2024/04/17 05:20:54;;;;;;;4.55;2.30;;;6.10;99.90;;;;;;4312245;27;20008;-82
2024/04/17 05:22:55;;;;;;;4.25;2.10;;;6.10;99.90;;;;;;4311969;27;20015;-82
2024/04/17 05:24:59;;;;;;;3.80;1.80;;;6.20;99.90;;;;;;4312191;27;20008;-81
2024/04/17 05:27:00;;;;;;;3.95;2.28;;;6.10;99.90;;;;;;4311963;27;20437;-81
2024/04/17 05:29:03;;;;;;;4.22;1.77;;;6.20;99.90;;;;;;4311601;27;20016;-83
2024/04/17 05:31:04;;;;;;;3.25;1.70;;;6.20;99.90;;;;;;4311908;27;19999;-81
2024/04/17 05:33:10;;;;;;;3.00;1.38;;;6.20;99.90;;;;;;4311622;27;20097;-81
2024/04/17 05:35:11;;;;;;;3.25;1.63;;;6.10;99.90;;;;;;4311862;27;20039;-82
2024/04/17 05:37:15;;;;;;;2.05;1.00;;;6.10;99.90;;;;;;4310800;27;20357;-82
2024/04/17 05:39:16;;;;;;;2.58;1.10;;;6.10;99.90;;;;;;4311828;27;20014;-82
2024/04/17 05:41:19;;;;;;;12.32;7.18;;;6.10;99.90;;;;;;4311529;27;20003;-83
2024/04/17 05:43:20;;;;;;;8.68;5.25;;;6.20;99.90;;;;;;4311372;27;20003;-82
2024/04/17 05:45:24;;;;;;;9.93;5.43;;;6.20;99.90;;;;;;4289671;27;20008;-82
2024/04/17 05:47:25;;;;;;;4.07;1.75;;;6.20;99.90;;;;;;4284445;27;20004;-82
2024/04/17 05:49:31;;;;;;;7.85;4.40;;;6.20;99.90;;;;;;4284673;27;20335;-83
2024/04/17 05:51:32;;;;;;;7.57;3.78;;;6.20;99.90;;;;;;4284663;27;20438;-85
2024/04/17 05:53:35;;;;;;;7.07;3.35;;;6.30;99.90;;;;;;4286793;27;20013;-82
2024/04/17 05:55:38;;;;;;;8.80;4.22;;;6.20;99.90;;;;;;4284335;27;20016;-82
2024/04/17 05:57:42;;;;;;;8.50;3.97;;;6.20;99.90;;;;;;4284436;27;20016;-82
2024/04/17 05:59:43;;;;;;;5.55;2.10;;;6.20;99.90;;;;;;4284638;27;20427;-82
2024/04/17 06:01:46;;;;;;;6.38;3.03;;;6.20;99.90;;;;;;4287001;27;20045;-82
2024/04/17 06:03:47;;;;;;;6.75;3.22;;;6.20;99.90;;;;;;4287320;27;20468;-82
2024/04/17 06:05:54;;;;;;;4.38;1.83;;;6.20;99.90;;;;;;4287316;27;20009;-83
2024/04/17 06:07:54;;;;;;;3.95;1.70;;;6.30;99.90;;;;;;4286866;27;20000;-82
2024/04/17 06:09:58;;;;;;;5.88;2.42;;;6.30;99.90;;;;;;4287044;27;20497;-83
2024/04/17 06:11:59;;;;;;;18.13;8.77;;;6.40;99.90;;;;;;4287009;27;20015;-82
2024/04/17 06:14:02;;;;;;;4.70;2.13;;;6.40;99.90;;;;;;4287110;27;20005;-83
2024/04/17 06:16:04;;;;;;;3.78;1.50;;;6.40;99.90;;;;;;4287116;27;20011;-82
2024/04/17 06:18:09;;;;;;;1.77;0.68;;;6.40;99.90;;;;;;4287075;27;20033;-82
2024/04/17 06:20:10;;;;;;;1.90;0.80;;;6.40;99.90;;;;;;4287160;27;20019;-82
2024/04/17 06:22:16;;;;;;;1.75;0.80;;;6.50;99.90;;;;;;4288725;27;20009;-82
2024/04/17 06:24:17;;;;;;;2.38;0.80;;;6.50;99.90;;;;;;4287051;27;20005;-82
2024/04/17 06:26:20;;;;;;;1.65;0.60;;;6.50;99.90;;;;;;4287135;27;20471;-83
2024/04/17 06:28:21;;;;;;;2.42;0.80;;;6.50;99.90;;;;;;4287241;27;20015;-83
2024/04/17 06:30:25;;;;;;;1.42;0.40;;;6.50;99.90;;;;;;4287056;27;20004;-86
2024/04/17 06:32:25;;;;;;;2.67;0.50;;;6.50;99.90;;;;;;4287219;27;20016;-84
2024/04/17 06:34:30;;;;;;;1.52;0.68;;;6.50;99.90;;;;;;4287103;27;20004;-83
2024/04/17 06:36:31;;;;;;;1.43;0.60;;;6.60;99.90;;;;;;4287197;27;20083;-83
2024/04/17 06:38:38;;;;;;;1.15;0.50;;;6.60;99.90;;;;;;4287061;27;20417;-83
2024/04/17 06:40:38;;;;;;;2.33;0.90;;;6.70;99.90;;;;;;4288768;27;20012;-83
2024/04/17 06:42:42;;;;;;;3.08;1.23;;;6.70;99.90;;;;;;4286766;27;20036;-83
2024/04/17 06:44:43;;;;;;;1.58;0.70;;;6.80;99.90;;;;;;4294306;27;20027;-83
2024/04/17 06:46:46;;;;;;;1.63;0.60;;;6.80;99.90;;;;;;4313407;27;20012;-83
2024/04/17 06:48:47;;;;;;;1.13;0.40;;;6.80;99.90;;;;;;4313865;27;20003;-83
2024/04/17 06:50:51;;;;;;;1.30;0.50;;;6.80;99.90;;;;;;4314007;27;20023;-83
2024/04/17 06:52:52;;;;;;;1.13;0.50;;;6.70;99.90;;;;;;4313955;27;20023;-83
2024/04/17 06:54:58;;;;;;;2.33;0.90;;;6.60;99.90;;;;;;4314234;27;20035;-83
2024/04/17 06:56:59;;;;;;;3.42;1.10;;;6.60;99.90;;;;;;4314074;27;20000;-83
2024/04/17 06:59:03;;;;;;;1.90;0.70;;;6.70;99.90;;;;;;4314219;27;20004;-83
2024/04/17 07:01:04;;;;;;;1.70;0.50;;;6.60;99.90;;;;;;4313590;27;20014;-81
2024/04/17 07:03:07;;;;;;;1.42;0.50;;;6.60;99.90;;;;;;4314409;27;20333;-81
2024/04/17 07:05:08;;;;;;;5.68;2.65;;;6.70;99.90;;;;;;4313953;27;20014;-84
2024/04/17 07:07:12;;;;;;;2.90;1.23;;;6.70;99.90;;;;;;4313884;27;20016;-83
2024/04/17 07:09:13;;;;;;;3.65;1.58;;;6.60;99.90;;;;;;4311102;27;20023;-82
2024/04/17 07:11:19;;;;;;;2.22;0.75;;;6.40;99.90;;;;;;4313309;27;20004;-83
2024/04/17 07:13:20;;;;;;;4.53;2.17;;;6.30;99.90;;;;;;4313819;27;20370;-82
2024/04/17 07:15:24;;;;;;;2.70;1.05;;;6.30;99.90;;;;;;4313828;27;20027;-82
2024/04/17 07:17:24;;;;;;;1.75;0.85;;;6.30;99.90;;;;;;4313628;27;20382;-82
2024/04/17 07:19:28;;;;;;;2.97;1.10;;;6.20;99.90;;;;;;4313670;27;20004;-82
2024/04/17 07:21:29;;;;;;;6.53;3.33;;;6.10;99.90;;;;;;4313770;27;20015;-84
2024/04/17 07:23:32;;;;;;;3.63;1.77;;;6.10;99.90;;;;;;4313835;27;20004;-83
2024/04/17 07:25:33;;;;;;;9.50;4.97;;;6.10;99.90;;;;;;4313589;27;20004;-82
2024/04/17 07:27:39;;;;;;;6.93;3.35;;;6.10;99.90;;;;;;4313561;27;20007;-82
2024/04/17 07:29:40;;;;;;;9.65;4.72;;;6.10;99.90;;;;;;4313892;27;20449;-82
2024/04/17 07:31:44;;;;;;;4.60;2.05;;;6.10;99.90;;;;;;4313920;27;20004;-82
2024/04/17 07:33:47;;;;;;;8.13;3.30;;;6.10;99.90;;;;;;4306502;27;20020;-82
2024/04/17 07:36:00;;;;;;;5.65;2.40;;;6.10;99.90;;;;;;4287039;27;20019;-82
2024/04/17 07:38:01;;;;;;;3.13;1.20;;;6.20;99.90;;;;;;4286361;27;20015;-82
2024/04/17 07:40:05;;;;;;;4.75;2.40;;;6.10;99.90;;;;;;4286275;27;20001;-83
2024/04/17 07:42:06;;;;;;;6.57;3.08;;;6.20;99.90;;;;;;4285680;27;20000;-82
2024/04/17 07:44:12;;;;;;;5.20;2.33;;;6.10;99.90;;;;;;4286278;27;20004;-82
2024/04/17 07:46:13;;;;;;;2.60;1.23;;;6.20;99.90;;;;;;4286337;27;20005;-82
2024/04/17 07:48:17;;;;;;;3.78;1.10;;;6.20;99.90;;;;;;4285931;27;20023;-81
2024/04/17 07:50:18;;;;;;;2.13;0.90;;;6.30;99.90;;;;;;4286272;27;20018;-82
2024/04/17 07:52:22;;;;;;;2.88;1.30;;;6.20;99.90;;;;;;4288137;27;20016;-82
2024/04/17 07:54:23;;;;;;;2.65;1.20;;;6.20;99.90;;;;;;4286258;27;20020;-82
2024/04/17 07:56:27;;;;;;;4.70;1.40;;;6.30;99.90;;;;;;4285915;27;20019;-83
2024/04/17 07:58:28;;;;;;;3.58;1.40;;;6.40;99.90;;;;;;4284143;27;20370;-83
2024/04/17 08:00:35;;;;;;;2.75;1.30;;;6.30;99.90;;;;;;4285843;27;20004;-82
2024/04/17 08:02:36;;;;;;;2.90;1.50;;;6.30;99.90;;;;;;4286034;27;20009;-81
2024/04/17 08:04:40;;;;;;;3.08;1.20;;;6.20;99.90;;;;;;4285916;27;20019;-82
2024/04/17 08:06:41;;;;;;;3.33;1.45;;;6.30;99.90;;;;;;4286243;27;20358;-82
2024/04/17 08:08:44;;;;;;;4.07;2.05;;;6.30;99.90;;;;;;4285910;27;20008;-82
2024/04/17 08:10:45;;;;;;;3.53;1.80;;;6.40;99.90;;;;;;4286136;27;20008;-83
2024/04/17 08:12:52;;;;;;;2.80;1.40;;;6.40;99.90;;;;;;4286372;27;20013;-82
2024/04/17 08:14:53;;;;;;;2.90;1.50;;;6.50;99.90;;;;;;4286176;27;20011;-81
2024/04/17 08:16:59;;;;;;;3.03;1.52;;;6.60;99.90;;;;;;4286186;27;20004;-82
2024/04/17 08:19:00;;;;;;;4.38;2.00;;;6.60;99.90;;;;;;4286115;27;20445;-82
2024/04/17 08:21:04;;;;;;;5.13;2.22;;;6.50;99.90;;;;;;4285677;27;20057;-82
2024/04/17 08:23:05;;;;;;;4.38;2.20;;;6.40;99.90;;;;;;4284562;27;20008;-82
2024/04/17 08:25:09;;;;;;;4.88;2.30;;;6.30;99.90;;;;;;4287468;27;20009;-82
2024/04/17 08:27:10;;;;;;;4.53;2.63;;;6.40;99.90;;;;;;4285853;27;20004;-81
2024/04/17 08:29:13;;;;;;;4.78;2.75;;;6.40;99.90;;;;;;4285411;27;20015;-79
2024/04/17 08:31:14;;;;;;;6.40;3.63;;;6.40;99.90;;;;;;4305095;27;20022;-81
2024/04/17 08:33:20;;;;;;;6.80;3.60;;;6.40;99.90;;;;;;4285574;27;20391;-74
2024/04/17 08:35:21;;;;;;;4.35;2.28;;;6.40;99.90;;;;;;4291537;27;20024;-80
2024/04/17 08:37:25;;;;;;;9.07;3.95;;;6.40;99.90;;;;;;4310241;27;20011;-83
2024/04/17 08:39:26;;;;;;;4.10;2.22;;;6.50;99.90;;;;;;4312437;27;20007;-84
2024/04/17 08:41:31;;;;;;;4.40;2.22;;;6.40;99.90;;;;;;4313949;27;20011;-83
2024/04/17 08:43:36;;;;;;;4.07;2.20;;;6.30;99.90;;;;;;4313172;27;20008;-83
2024/04/17 08:45:40;;;;;;;4.33;2.40;;;6.30;99.90;;;;;;4313046;27;20414;-83
2024/04/17 08:47:42;;;;;;;5.22;2.55;;;6.30;99.90;;;;;;4312890;27;20333;-83
2024/04/17 08:49:49;;;;;;;4.47;2.45;;;6.40;99.90;;;;;;4312853;27;20008;-84
2024/04/17 08:51:50;;;;;;;5.10;2.88;;;6.40;99.90;;;;;;4311474;27;20008;-82
2024/04/17 08:53:57;;;;;;;5.07;2.65;;;6.40;99.90;;;;;;4312340;27;20341;-84
2024/04/17 08:55:58;;;;;;;5.70;2.88;;;6.40;99.90;;;;;;4312767;27;20003;-82
2024/04/17 08:58:02;;;;;;;7.07;4.20;;;6.50;99.90;;;;;;4312330;27;20476;-83
2024/04/17 09:00:05;;;;;;;12.70;6.85;;;6.50;99.90;;;;;;4312666;27;20067;-84
2024/04/17 09:02:16;;;;;;;5.30;2.90;;;6.40;99.90;;;;;;4310351;27;20011;-84
2024/04/17 09:04:18;;;;;;;4.43;2.60;;;6.30;99.90;;;;;;4292247;27;20008;-82
2024/04/17 09:06:25;;;;;;;4.18;2.00;;;6.40;99.90;;;;;;4310704;27;20015;-85
2024/04/17 09:08:26;;;;;;;3.60;1.90;;;6.30;99.90;;;;;;4310766;27;20011;-83
2024/04/17 09:10:27;;;;;;;5.10;2.00;;;6.20;99.90;;;;;;4293972;27;20016;-83
2024/04/17 09:12:32;;;;;;;3.60;1.80;;;6.10;99.90;;;;;;4283504;27;20028;-86
2024/04/17 09:14:33;;;;;;;4.30;2.03;;;6.10;99.90;;;;;;4282518;27;20019;-83
2024/04/17 09:16:36;;;;;;;3.72;1.67;;;6.10;99.90;;;;;;4283267;27;20008;-84
2024/04/17 09:18:37;;;;;;;4.45;1.67;;;6.00;99.90;;;;;;4283895;27;20013;-84
2024/04/17 09:20:42;;;;;;;4.97;2.30;;;5.90;99.90;;;;;;4283585;27;20060;-85
2024/04/17 09:22:46;;;;;;;3.50;1.73;;;6.00;99.90;;;;;;4286265;27;20015;-85
2024/04/17 09:24:49;;;;;;;3.80;2.00;;;6.10;99.90;;;;;;4283646;27;20414;-84
2024/04/17 09:26:50;;;;;;;5.53;2.20;;;6.10;99.90;;;;;;4283743;27;20075;-85
2024/04/17 09:28:55;;;;;;;3.80;1.50;;;6.00;99.90;;;;;;4282453;27;20031;-84
2024/04/17 09:30:56;;;;;;;3.30;1.60;;;6.00;99.90;;;;;;4282356;27;20138;-80
2024/04/17 09:33:00;;;;;;;6.97;3.45;;;6.00;99.90;;;;;;4282178;27;20008;-82
2024/04/17 09:35:00;;;;;;;3.22;1.80;;;6.10;99.90;;;;;;4281956;27;20058;-82
2024/04/17 09:37:04;;;;;;;3.05;1.42;;;6.30;99.90;;;;;;4285336;27;20009;-83
2024/04/17 09:39:09;;;;;;;3.63;1.33;;;6.50;99.90;;;;;;4285208;27;20020;-82
2024/04/17 09:41:13;;;;;;;3.10;1.52;;;6.60;99.90;;;;;;4284918;27;20011;-82
2024/04/17 09:43:24;;;;;;;3.13;1.50;;;6.70;99.90;;;;;;4285472;27;20008;-85
2024/04/17 09:45:29;;;;;;;3.15;1.65;;;6.70;99.90;;;;;;4311298;27;20016;-85
2024/04/17 09:47:31;;;;;;;3.40;1.70;;;6.90;99.90;;;;;;4285536;27;20020;-84
2024/04/17 09:49:35;;;;;;;2.70;1.40;;;6.90;99.90;;;;;;4285426;27;20044;-83
2024/04/17 09:51:39;;;;;;;3.22;1.70;;;6.90;99.90;;;;;;4283235;27;20512;-83
2024/04/17 09:53:51;;;;;;;3.38;1.65;;;6.80;99.90;;;;;;4285104;27;20396;-84
2024/04/17 09:55:55;;;;;;;3.40;1.63;;;6.70;99.90;;;;;;4286425;27;20015;-81
2024/04/17 09:58:00;;;;;;;3.40;1.90;;;6.60;99.90;;;;;;4287059;27;20005;-83
2024/04/17 10:00:02;;;;;;;4.03;2.10;;;6.50;99.90;;;;;;4285769;27;20482;-83
2024/04/17 10:02:08;;;;;;;3.30;1.75;;;6.50;99.90;;;;;;4285177;27;20004;-83
2024/04/17 10:04:10;;;;;;;3.83;1.90;;;6.50;99.90;;;;;;4285576;27;20051;-83
2024/04/17 10:06:14;;;;;;;3.92;2.05;;;6.30;99.90;;;;;;4285181;27;20350;-83
2024/04/17 10:08:17;;;;;;;3.95;1.90;;;6.30;99.90;;;;;;4285264;27;20020;-83
2024/04/17 10:10:22;;;;;;;4.15;2.17;;;6.30;99.90;;;;;;4284396;27;20016;-83
2024/04/17 10:12:28;;;;;;;5.30;2.30;;;6.40;99.90;;;;;;4285233;27;20421;-81
2024/04/17 10:14:33;;;;;;;3.92;2.35;;;6.20;99.90;;;;;;4285336;27;20008;-82
2024/04/17 10:16:33;;;;;;;5.00;2.53;;;6.10;99.90;;;;;;4287476;27;20015;-83
2024/04/17 10:18:37;;;;;;;4.65;2.40;;;6.10;99.90;;;;;;4285453;27;20454;-82
2024/04/17 10:20:38;;;;;;;4.53;2.83;;;6.10;99.90;;;;;;4284828;27;20004;-83
2024/04/17 10:22:43;;;;;;;4.55;2.55;;;6.30;99.90;;;;;;4284640;27;20088;-81
2024/04/17 10:24:44;;;;;;;5.17;2.77;;;6.40;99.90;;;;;;4284848;27;20004;-82
2024/04/17 10:26:49;;;;;;;5.43;3.28;;;6.50;99.90;;;;;;4284568;27;20273;-81
2024/04/17 10:28:53;;;;;;;6.75;3.33;;;6.60;99.90;;;;;;4284150;27;20036;-82
2024/04/17 10:30:58;;;;;;;6.43;3.60;;;6.70;99.90;;;;;;4284548;27;20009;-82
2024/04/17 10:32:59;;;;;;;7.18;3.80;;;6.70;99.90;;;;;;4284862;27;20004;-84
2024/04/17 10:35:02;;;;;;;7.60;3.80;;;6.70;99.90;;;;;;4281558;27;20027;-82
2024/04/17 10:37:03;;;;;;;4.53;3.08;;;6.80;99.90;;;;;;4284540;27;20437;-83
2024/04/17 10:39:07;;;;;;;6.75;3.38;;;6.80;99.90;;;;;;4284439;27;20016;-82
2024/04/17 10:41:11;;;;;;;5.10;3.00;;;6.90;99.90;;;;;;4284187;27;20004;-81
2024/04/17 10:43:15;;;;;;;4.75;3.17;;;7.00;99.90;;;;;;4284462;27;20522;-81
2024/04/17 10:45:19;;;;;;;5.90;3.08;;;7.10;99.90;;;;;;4284348;27;20020;-83
2024/04/17 10:47:25;;;;;;;5.90;3.53;;;7.10;99.90;;;;;;4284544;27;20023;-83
2024/04/17 10:49:26;;;;;;;5.13;3.35;;;7.10;99.90;;;;;;4284214;27;20413;-82
2024/04/17 10:51:31;;;;;;;6.82;3.45;;;7.10;99.90;;;;;;4284208;27;20084;-82
2024/04/17 10:53:32;;;;;;;15.82;8.98;;;7.20;99.90;;;;;;4284165;27;20363;-83
2024/04/17 10:55:36;;;;;;;10.60;6.05;;;7.20;99.90;;;;;;4284203;27;20009;-81
2024/04/17 10:57:37;;;;;;;8.10;3.70;;;7.30;99.90;;;;;;4284581;27;20342;-83
2024/04/17 10:59:47;;;;;;;6.13;3.47;;;7.30;99.90;;;;;;4284877;27;20031;-82
2024/04/17 11:01:52;;;;;;;5.47;3.53;;;7.40;99.90;;;;;;4284273;27;20005;-82
2024/04/17 11:03:55;;;;;;;10.70;6.38;;;7.40;99.90;;;;;;4284807;27;20323;-84
2024/04/17 11:05:57;;;;;;;11.52;6.90;;;7.50;99.90;;;;;;4286085;27;20513;-85
2024/04/17 11:08:02;;;;;;;6.95;4.35;;;7.50;99.90;;;;;;4285357;27;20004;-83
2024/04/17 11:10:10;;;;;;;6.22;3.92;;;7.60;99.90;;;;;;4284393;27;20101;-83
2024/04/17 11:12:19;;;;;;;6.80;4.03;;;7.70;99.90;;;;;;4285086;27;20028;-84
2024/04/17 11:14:19;;;;;;;7.00;4.40;;;7.80;99.90;;;;;;4284742;27;20004;-84
2024/04/17 11:16:23;;;;;;;6.75;4.47;;;7.90;99.90;;;;;;4283977;27;20061;-82
2024/04/17 11:18:31;;;;;;;7.97;4.35;;;8.00;99.90;;;;;;4284950;27;20427;-83
2024/04/17 11:20:35;;;;;;;6.55;4.20;;;8.20;99.90;;;;;;4284935;27;20497;-84
2024/04/17 11:22:36;;;;;;;6.32;3.97;;;8.40;99.90;;;;;;4284253;27;20441;-82
2024/04/17 11:24:40;;;;;;;7.13;4.43;;;8.50;99.90;;;;;;4285139;27;20012;-84
2024/04/17 11:26:41;;;;;;;7.15;4.43;;;8.60;99.90;;;;;;4284280;27;20008;-83
2024/04/17 11:28:46;;;;;;;7.00;3.97;;;8.80;99.90;;;;;;4283851;27;20016;-83
2024/04/17 11:30:47;;;;;;;7.35;4.07;;;8.90;99.60;;;;;;4284798;27;20005;-81
2024/04/17 11:32:50;;;;;;;7.45;4.50;;;9.00;99.00;;;;;;4284779;27;20087;-81
2024/04/17 11:34:55;;;;;;;6.70;4.13;;;9.20;99.00;;;;;;4281320;27;20004;-81
2024/04/17 11:37:06;;;;;;;10.55;7.03;;;9.20;99.00;;;;;;4284806;27;20063;-80
2024/04/17 11:39:07;;;;;;;9.27;5.63;;;9.30;99.10;;;;;;4284687;27;20008;-81
2024/04/17 11:41:13;;;;;;;10.32;5.50;;;9.30;99.20;;;;;;4283708;27;20014;-79
2024/04/17 11:43:14;;;;;;;;;;;9.30;98.50;;;;;;4285417;27;20016;-80
2024/04/17 11:45:18;;;;;;;9.88;5.10;;;9.20;97.40;;;;;;4311749;27;20350;-81
2024/04/17 11:47:19;;;;;;;7.72;4.60;;;9.20;98.50;;;;;;4311404;27;20004;-79
2024/04/17 11:49:23;;;;;;;6.95;4.32;;;9.10;99.20;;;;;;4310928;27;20022;-79
2024/04/17 11:51:28;;;;;;;8.82;5.07;;;9.10;99.70;;;;;;4289195;27;20431;-81
2024/04/17 11:53:31;;;;;;;8.60;5.00;;;9.00;99.90;;;;;;4284279;27;20019;-80
2024/04/17 11:55:32;;;;;;;9.05;4.97;;;8.90;99.70;;;;;;4284355;27;20009;-81
2024/04/17 11:57:36;;;;;;;7.78;5.03;;;8.90;99.40;;;;;;4282903;27;20009;-79
2024/04/17 11:59:37;;;;;;;7.75;5.00;;;8.80;98.70;;;;;;4283793;27;20005;-79
2024/04/17 12:01:41;;;;;;;9.10;4.70;;;8.90;98.70;;;;;;4283813;27;20842;-80
2024/04/17 12:03:42;;;;;;;7.68;4.80;;;9.00;98.80;;;;;;4283658;27;20008;-80
2024/04/17 12:05:45;;;;;;;7.35;4.95;;;9.20;98.30;;;;;;4284126;27;20019;-80
2024/04/17 12:07:49;;;;;;;8.38;4.80;;;9.30;98.30;;;;;;4283886;27;20004;-80
2024/04/17 12:09:52;;;;;;;9.35;5.28;;;9.30;98.20;;;;;;4283558;27;20016;-82
2024/04/17 12:11:53;;;;;;;8.80;4.80;;;9.30;98.40;;;;;;4283906;27;20012;-79
2024/04/17 12:13:57;;;;;;;8.35;4.82;;;9.40;98.70;;;;;;4283893;27;20485;-79
2024/04/17 12:15:58;;;;;;;8.18;5.03;;;9.40;98.80;;;;;;4283180;27;20009;-81
2024/04/17 12:18:01;;;;;;;8.60;5.00;;;9.40;98.70;;;;;;4285739;27;20008;-80
2024/04/17 12:20:03;;;;;;;10.10;5.30;;;9.50;98.40;;;;;;4283755;27;20009;-81
2024/04/17 12:22:07;;;;;;;10.50;5.88;;;9.50;98.60;;;;;;4283337;27;20335;-81
2024/04/17 12:24:18;;;;;;;15.00;9.90;;;9.70;98.10;;;;;;4283463;27;20005;-82
2024/04/17 12:28:49;;;;;;;11.88;7.05;;;10.30;97.60;;;;;;4262143;27;20012;-79
2024/04/17 12:30:50;;;;;;;14.27;8.82;;;10.60;97.50;;;;;;4300013;27;20008;-80
2024/04/17 12:32:54;;;;;;;9.70;6.28;;;10.80;97.30;;;;;;4311013;27;20026;-81
2024/04/17 12:34:55;;;;;;;9.15;6.35;;;11.00;97.20;;;;;;4284320;27;20009;-80
2024/04/17 12:36:58;;;;;;;7.82;5.10;;;11.10;97.00;;;;;;4283088;27;20020;-79
2024/04/17 12:39:02;;;;;;;8.25;5.50;;;11.20;95.50;;;;;;4283546;27;20023;-80
2024/04/17 12:41:08;;;;;;;10.18;6.07;;;11.20;96.40;;;;;;4283340;27;20466;-80
2024/04/17 12:43:09;;;;;;;8.38;5.32;;;11.30;95.90;;;;;;4283213;27;20004;-81
2024/04/17 12:45:13;;;;;;;7.72;4.60;;;11.50;95.60;;;;;;4283668;27;20004;-81
2024/04/17 12:47:14;;;;;;;7.47;4.78;;;11.50;93.40;;;;;;4283845;27;20018;-81
2024/04/17 12:49:18;;;;;;;11.25;5.13;;;11.10;91.60;;;;;;4283463;27;20355;-81
2024/04/17 12:51:19;;;;;;;7.28;4.40;;;11.10;93.20;;;;;;4284585;27;20019;-82
2024/04/17 12:53:23;;;;;;;7.63;4.13;;;11.30;92.50;;;;;;4284243;27;20012;-82
2024/04/17 12:55:24;;;;;;;7.68;4.68;;;11.30;91.20;;;;;;4283862;27;20004;-83
2024/04/17 12:57:30;;;;;;;10.98;5.13;;;11.00;90.60;;;;;;4284310;27;20023;-82
2024/04/17 12:59:31;;;;;;;9.10;3.97;;;10.80;91.70;;;;;;4284548;27;20015;-81
2024/04/17 13:01:35;;;;;;;10.38;3.95;;;10.50;89.70;;;;;;4285729;27;20363;-81
2024/04/17 13:03:36;;;;;;;7.78;3.47;;;10.10;89.90;;;;;;4283251;27;20000;-81
2024/04/17 13:05:40;;;;;;;8.43;3.80;;;10.30;85.20;;;;;;4284358;27;20016;-81
2024/04/17 13:07:41;;;;;;;9.05;4.05;;;10.20;88.30;;;;;;4283796;27;20004;-82
2024/04/17 13:09:44;;;;;;;7.70;3.88;;;10.00;89.10;;;;;;4285965;27;20439;-82
2024/04/17 13:11:46;;;;;;;7.32;3.63;;;9.70;90.00;;;;;;4287288;27;20281;-81
2024/04/17 13:13:54;;;;;;;7.07;2.97;;;9.80;90.30;;;;;;4287192;27;20027;-80
2024/04/17 13:15:55;;;;;;;5.45;2.67;;;9.70;89.10;;;;;;4286408;27;20020;-81
2024/04/17 13:17:59;;;;;;;9.93;2.90;;;9.50;87.00;;;;;;4286913;27;20005;-81
2024/04/17 13:20:00;;;;;;;6.35;2.85;;;9.30;87.10;;;;;;4286947;27;20019;-82
2024/04/17 13:22:03;;;;;;;6.03;3.35;;;9.00;89.00;;;;;;4286395;27;20008;-80
2024/04/17 13:24:05;;;;;;;5.93;2.80;;;8.70;91.20;;;;;;4299552;27;20009;-82
2024/04/17 13:26:06;;;;;;;7.00;2.85;;;8.60;92.10;;;;;;4314311;27;20040;-82
2024/04/17 13:28:10;;;;;;;6.68;3.47;;;8.30;92.50;;;;;;4313283;27;20006;-82
2024/04/17 13:30:13;;;;;;;6.28;3.30;;;7.80;94.70;;;;;;4313603;27;20083;-81
2024/04/17 13:32:17;;;;;;;7.80;3.30;;;7.40;96.10;;;;;;4314238;27;20003;-81
2024/04/17 13:34:18;;;;;;;6.55;3.28;;;7.30;96.80;;;;;;4310785;27;20023;-80
2024/04/17 13:36:22;;;;;;;5.80;3.28;;;7.20;96.50;;;;;;4313966;27;20014;-81
2024/04/17 13:38:23;;;;;;;7.63;3.28;;;6.90;96.90;;;;;;4314626;27;20003;-81
2024/04/17 13:40:27;;;;;;;7.40;3.17;;;7.00;96.90;;;;;;4314401;27;20457;-83
2024/04/17 13:42:27;;;;;;;6.88;3.30;;;7.10;97.30;;;;;;4313869;27;20018;-81
2024/04/17 13:44:31;;;;;;;6.75;3.15;;;7.30;98.00;;;;;;4300679;27;20012;-81
2024/04/17 13:46:35;;;;;;;9.07;3.25;;;7.30;97.30;;;;;;4306600;27;20327;-81
2024/04/17 13:48:39;;;;;;;6.38;3.30;;;7.30;97.20;;;;;;4313841;27;20008;-81
2024/04/17 13:50:40;;;;;;;6.35;3.30;;;7.20;98.30;;;;;;4313901;27;20035;-81
2024/04/17 13:52:44;;;;;;;8.05;3.45;;;7.30;98.70;;;;;;4292932;27;20454;-83
2024/04/17 13:54:45;;;;;;;7.13;3.40;;;7.40;98.30;;;;;;4285190;27;20012;-81
2024/04/17 13:56:49;;;;;;;8.10;3.63;;;7.40;98.40;;;;;;4285692;27;20012;-82
2024/04/17 13:58:50;;;;;;;8.80;3.65;;;7.50;98.00;;;;;;4286217;27;20008;-82
2024/04/17 14:00:53;;;;;;;9.35;3.58;;;7.60;97.60;;;;;;4285373;27;20474;-81
2024/04/17 14:02:58;;;;;;;8.70;3.50;;;7.70;97.50;;;;;;4285558;27;20012;-81
2024/04/17 14:05:02;;;;;;;8.75;3.28;;;7.80;96.90;;;;;;4285247;27;20087;-81
2024/04/17 14:07:04;;;;;;;9.18;3.58;;;7.70;97.30;;;;;;4304126;27;20008;-83
2024/04/17 14:09:08;;;;;;;6.55;3.10;;;7.70;97.80;;;;;;4299488;27;20767;-81
2024/04/17 14:11:10;;;;;;;6.13;3.17;;;7.70;97.40;;;;;;4285612;27;20458;-80
2024/04/17 14:13:14;;;;;;;6.80;3.33;;;7.70;97.60;;;;;;4284939;27;20049;-79
2024/04/17 14:15:15;;;;;;;7.00;3.13;;;7.70;97.60;;;;;;4286063;27;20004;-81
2024/04/17 14:17:19;;;;;;;7.20;2.95;;;7.70;97.60;;;;;;4286108;27;20092;-84
2024/04/17 14:19:22;;;;;;;5.10;2.90;;;7.70;97.80;;;;;;4285896;27;20018;-81
2024/04/17 14:21:26;;;;;;;5.72;3.08;;;7.90;97.70;;;;;;4283334;27;20024;-82
2024/04/17 14:23:27;;;;;;;5.10;2.75;;;8.00;97.10;;;;;;4285713;27;20740;-81
2024/04/17 14:25:31;;;;;;;5.88;2.40;;;8.00;97.20;;;;;;4287016;27;20008;-86
2024/04/17 14:27:32;;;;;;;6.30;2.72;;;8.20;96.00;;;;;;4288640;27;20008;-84
2024/04/17 14:29:35;;;;;;;5.38;2.78;;;8.40;95.40;;;;;;4288499;27;20008;-83
2024/04/17 14:31:37;;;;;;;6.68;2.70;;;8.80;95.60;;;;;;4288359;27;20009;-84
2024/04/17 14:33:41;;;;;;;5.93;2.72;;;9.10;94.20;;;;;;4285540;27;20015;-87
2024/04/17 14:35:44;;;;;;;7.47;2.83;;;9.70;92.90;;;;;;4295908;27;20362;-87
2024/04/17 14:37:48;;;;;;;5.10;2.50;;;10.50;91.80;;;;;;4292934;27;20055;-86
2024/04/17 14:39:50;;;;;;;5.35;3.08;;;11.50;89.00;;;;;;4289222;27;20019;-84
2024/04/17 14:41:53;;;;;;;5.18;2.30;;;12.40;78.90;;;;;;4274816;27;20334;-81
2024/04/17 14:43:54;;;;;;;7.32;2.28;;;13.30;75.90;;;;;;4287177;27;20020;-84
2024/04/17 14:45:59;;;;;;;38.80;36.75;;;14.20;66.90;;;;;;4290036;27;20015;-85
2024/04/17 14:47:59;;;;;;;3.90;1.90;;;14.30;63.70;;;;;;4287862;27;20009;-83
2024/04/17 14:50:03;;;;;;;6.50;2.08;;;15.10;62.70;;;;;;4287518;27;20019;-83
2024/04/17 14:52:07;;;;;;;6.38;2.20;;;14.10;63.10;;;;;;4285901;27;20031;-81
2024/04/17 14:54:12;;;;;;;6.25;2.30;;;13.00;66.80;;;;;;4288130;27;20008;-84
2024/04/17 14:56:13;;;;;;;5.05;2.47;;;12.30;67.70;;;;;;4288839;27;20015;-84
2024/04/17 14:58:18;;;;;;;6.43;2.17;;;11.70;71.30;;;;;;4292278;27;20008;-84
2024/04/17 15:00:19;;;;;;;5.97;2.30;;;11.40;72.10;;;;;;4292955;27;20019;-85
2024/04/17 15:02:23;;;;;;;6.00;2.42;;;11.10;76.00;;;;;;4292879;27;20285;-85
2024/04/17 15:04:24;;;;;;;6.10;2.20;;;11.00;77.20;;;;;;4291391;27;20020;-84
2024/04/17 15:06:28;;;;;;;5.60;2.00;;;10.80;77.60;;;;;;4293669;27;20004;-85
2024/04/17 15:08:33;;;;;;;6.00;2.33;;;10.70;77.60;;;;;;4287175;27;20004;-78
2024/04/17 15:10:37;;;;;;;6.07;2.53;;;10.70;79.60;;;;;;4286314;27;20008;-80
2024/04/17 15:12:38;;;;;;;4.65;2.10;;;10.60;81.10;;;;;;4286699;27;20009;-82
2024/04/17 15:14:42;;;;;;;6.20;2.40;;;10.50;82.50;;;;;;4287746;27;20041;-81
2024/04/17 15:16:44;;;;;;;5.70;2.50;;;10.30;80.40;;;;;;4287458;27;20015;-81
2024/04/17 15:18:47;;;;;;;5.05;2.50;;;10.10;81.10;;;;;;4289482;27;20053;-81
2024/04/17 15:20:58;;;;;;;5.25;2.28;;;10.10;81.80;;;;;;4289831;27;20015;-84
2024/04/17 15:23:02;;;;;;;6.07;2.40;;;10.20;82.60;;;;;;4290051;27;20012;-81
2024/04/17 15:25:06;;;;;;;4.57;2.30;;;10.20;81.90;;;;;;4289829;27;20004;-82
2024/04/17 15:27:09;;;;;;;4.50;2.50;;;10.20;82.10;;;;;;4288520;27;20032;-84
2024/04/17 15:29:10;;;;;;;7.75;2.15;;;10.60;82.00;;;;;;4301410;27;20008;-82
2024/04/17 15:31:18;;;;;;;4.22;2.10;;;10.90;79.40;;;;;;4313022;27;20043;-84
2024/04/17 15:33:19;;;;;;;7.45;2.40;;;11.30;79.00;;;;;;4308313;27;20004;-82
2024/04/17 15:35:23;;;;;;;5.80;2.10;;;11.60;77.70;;;;;;4284713;27;20020;-81
2024/04/17 15:37:24;;;;;;;3.40;1.90;;;11.90;74.80;;;;;;4264112;27;20021;-81
2024/04/17 15:39:27;;;;;;;5.32;2.20;;;11.90;74.40;;;;;;4283131;27;20005;-80
2024/04/17 15:41:31;;;;;;;4.82;2.33;;;11.70;76.00;;;;;;4287143;27;20009;-82
2024/04/17 15:43:36;;;;;;;5.60;1.95;;;11.80;76.30;;;;;;4281698;27;20012;-82
2024/04/17 15:45:37;;;;;;;4.95;2.42;;;12.10;76.10;;;;;;4275246;27;20023;-84
2024/04/17 15:47:41;;;;;;;5.63;2.20;;;12.40;75.80;;;;;;4284658;27;20096;-83
2024/04/17 15:49:43;;;;;;;5.43;2.03;;;12.50;74.00;;;;;;4286205;27;20008;-84